Hovedside
METAR-TAF:

METAR-TAF

Lufthavner :

Villmanstrand, Finland

Villmanstrand lufthavn

breddegrad: 61-02-45N, lengdegrad: 028-08-55E, høyde over havet: 106 m

Gjeldene værobservasjon

Denne rapporten ble laget for 34 minutter siden, klokken 20:50 UTC
Vind 6 kt fra Nord, skiftende mellom Nord-nordvest og Nord-nordøst
Temperatur -17°C
Luftfuktighet 84%
Trykk 1036 hPa
Sikt 10 km eller mer
ingen skyer under 1500 m og ingen bygeskyer

METAR: EFLP 242050Z AUTO 36006KT 330V030 CAVOK M17/M19 Q1036

Tid: 23:24 (21:24 UTC)


TAF: fraværende

Værobservasjoner og værvarsel for over 4000 flyplasser (METAR- og TAF-rapporter).

Tilgjengelige stasjoner er representert av de røde og gule prikkene på kartet.

Hold musepekeren over prikken for å se navnet på stasjonen.

Klikk så for å se værobservasjoner og -varsler.

For å forandre kartet kan du klikke på den grønne knappen med svart kryss for å zoome inn, på den grønne knappen med strek for å zoome ut, eller på de grønne pilene for å se tilstøtende kart.


METAR-TAF: